aviador You're here:

KLUK Decoded Metar

CINCINNATI in OH, USA
Report Time2017-10-21 14:53:00
UTC Time2017-10-21 15:44:20
Flight Rules vfr VFR
WindCalm
Visibility9999 m
Phenomena:N/A
Clouds:N/A
CeilingNone
Temp15°C (ISA +1)
Dew Point15°C (100% RH)
QNH1025 hPa
Density Alt453 ft
Elevation509 ft
Report Wrong Elevation
Raw Report
METAR KLUK 211453Z 00000KT 8SM CLR 15/15 A3027 RMK AO2 SLP250 T01500150
51010=

Extra information for KLUK:More info

Metar Taf Metar & Taf Last 4 Metars F.Rules Stats Wind Profile Meteogram Temp Stats Airport Information Weather charts Add Link Nearby VenuesMetar ALERT Operation Metar Decoded Social comments

AIRNAV info for KLUK